Aviation Digital Data Service (ADDS)

Output produced by METARs form (0244 UTC 24 July 2017)
found at http://www.aviationweather.gov/adds/metars/
 
HRYR 240230Z 00000KT 9999 SCT026 SCT100 21/14 Q1020 NOSIG
HRYR 232300Z 2400/2506 04004KT 9999 SCT026 SCT100 
     BECMG 2403/2406 VRB03KT 8000 SCT026 BKN100 
     FM240900 14008KT 9999 SCT025 
     TEMPO2412/2416 17010KT SCT025 SCT100 
     FM242100 34004KT SCT026 SCT100 
     BECMG 2503/2506 00000KT 8000 SCT026 BKN100